sensor_id;sensor_type;location;lat;lon;timestamp;temperature;humidity
1225;DHT22;602;48.000;7.840;2022-09-01T00:00:38;18.80;99.90
1225;DHT22;602;48.000;7.840;2022-09-01T00:03:07;18.90;99.90
1225;DHT22;602;48.000;7.840;2022-09-01T00:05:35;18.90;99.90
1225;DHT22;602;48.000;7.840;2022-09-01T00:08:04;18.80;99.90
1225;DHT22;602;48.000;7.840;2022-09-01T00:10:31;18.90;99.90
1225;DHT22;602;48.000;7.840;2022-09-01T00:12:58;18.80;99.90
1225;DHT22;602;48.000;7.840;2022-09-01T00:15:25;18.80;99.90
1225;DHT22;602;48.000;7.840;2022-09-01T00:17:52;18.80;99.90
1225;DHT22;602;48.000;7.840;2022-09-01T00:20:19;18.80;99.90
1225;DHT22;602;48.000;7.840;2022-09-01T00:22:47;18.80;99.90
1225;DHT22;602;48.000;7.840;2022-09-01T00:25:15;18.90;99.90
1225;DHT22;602;48.000;7.840;2022-09-01T00:27:44;18.90;99.90
1225;DHT22;602;48.000;7.840;2022-09-01T00:30:12;18.90;99.90
1225;DHT22;602;48.000;7.840;2022-09-01T00:32:39;18.90;99.90
1225;DHT22;602;48.000;7.840;2022-09-01T00:35:11;18.90;99.90
1225;DHT22;602;48.000;7.840;2022-09-01T00:37:38;18.90;99.90
1225;DHT22;602;48.000;7.840;2022-09-01T00:40:07;18.90;99.90
1225;DHT22;602;48.000;7.840;2022-09-01T00:42:37;18.90;99.90
1225;DHT22;602;48.000;7.840;2022-09-01T00:45:06;19.10;99.90
1225;DHT22;602;48.000;7.840;2022-09-01T00:47:33;19.20;99.90
1225;DHT22;602;48.000;7.840;2022-09-01T00:50:02;19.20;99.90
1225;DHT22;602;48.000;7.840;2022-09-01T00:52:33;19.20;99.90
1225;DHT22;602;48.000;7.840;2022-09-01T00:55:03;19.20;99.90
1225;DHT22;602;48.000;7.840;2022-09-01T00:57:30;19.20;99.90
1225;DHT22;602;48.000;7.840;2022-09-01T01:00:03;19.10;99.90
1225;DHT22;602;48.000;7.840;2022-09-01T01:02:30;19.20;99.90
1225;DHT22;602;48.000;7.840;2022-09-01T01:04:57;19.20;99.90
1225;DHT22;602;48.000;7.840;2022-09-01T01:07:26;19.10;99.90
1225;DHT22;602;48.000;7.840;2022-09-01T01:09:54;19.10;99.90
1225;DHT22;602;48.000;7.840;2022-09-01T01:12:21;19.10;99.90
1225;DHT22;602;48.000;7.840;2022-09-01T01:14:49;19.00;99.90
1225;DHT22;602;48.000;7.840;2022-09-01T01:17:19;19.00;99.90
1225;DHT22;602;48.000;7.840;2022-09-01T01:19:48;18.90;99.90
1225;DHT22;602;48.000;7.840;2022-09-01T01:22:40;18.80;99.90
1225;DHT22;602;48.000;7.840;2022-09-01T01:25:27;18.80;99.90
1225;DHT22;602;48.000;7.840;2022-09-01T01:28:03;18.90;99.90
1225;DHT22;602;48.000;7.840;2022-09-01T01:30:31;18.90;99.90
1225;DHT22;602;48.000;7.840;2022-09-01T01:33:02;19.00;99.90
1225;DHT22;602;48.000;7.840;2022-09-01T01:35:30;19.10;99.90
1225;DHT22;602;48.000;7.840;2022-09-01T01:37:58;19.10;99.90
1225;DHT22;602;48.000;7.840;2022-09-01T01:40:28;18.90;99.90
1225;DHT22;602;48.000;7.840;2022-09-01T01:42:55;18.90;99.90
1225;DHT22;602;48.000;7.840;2022-09-01T01:45:24;18.80;99.90
1225;DHT22;602;48.000;7.840;2022-09-01T01:47:52;18.90;99.90
1225;DHT22;602;48.000;7.840;2022-09-01T01:50:19;18.90;99.90
1225;DHT22;602;48.000;7.840;2022-09-01T01:52:46;18.80;99.90
1225;DHT22;602;48.000;7.840;2022-09-01T01:55:13;18.90;99.90
1225;DHT22;602;48.000;7.840;2022-09-01T01:57:45;18.90;99.90
1225;DHT22;602;48.000;7.840;2022-09-01T02:00:15;18.90;99.90
1225;DHT22;602;48.000;7.840;2022-09-01T02:02:44;18.70;99.90
1225;DHT22;602;48.000;7.840;2022-09-01T02:05:20;18.50;99.90
1225;DHT22;602;48.000;7.840;2022-09-01T02:07:51;18.50;99.90
1225;DHT22;602;48.000;7.840;2022-09-01T02:10:22;18.50;99.90
1225;DHT22;602;48.000;7.840;2022-09-01T02:12:51;18.50;99.90
1225;DHT22;602;48.000;7.840;2022-09-01T02:15:18;18.60;99.90
1225;DHT22;602;48.000;7.840;2022-09-01T02:17:45;18.60;99.90
1225;DHT22;602;48.000;7.840;2022-09-01T02:20:14;18.60;99.90
1225;DHT22;602;48.000;7.840;2022-09-01T02:22:41;18.60;99.90
1225;DHT22;602;48.000;7.840;2022-09-01T02:25:10;18.60;99.90
1225;DHT22;602;48.000;7.840;2022-09-01T02:27:41;18.50;99.90
1225;DHT22;602;48.000;7.840;2022-09-01T02:30:10;18.50;99.90
1225;DHT22;602;48.000;7.840;2022-09-01T02:32:37;18.50;99.90
1225;DHT22;602;48.000;7.840;2022-09-01T02:35:07;18.40;99.90
1225;DHT22;602;48.000;7.840;2022-09-01T02:37:35;18.40;99.90
1225;DHT22;602;48.000;7.840;2022-09-01T02:40:05;18.50;99.90
1225;DHT22;602;48.000;7.840;2022-09-01T02:42:35;18.40;99.90
1225;DHT22;602;48.000;7.840;2022-09-01T02:45:06;18.50;99.90
1225;DHT22;602;48.000;7.840;2022-09-01T02:47:42;18.40;99.90
1225;DHT22;602;48.000;7.840;2022-09-01T02:50:11;18.50;99.90
1225;DHT22;602;48.000;7.840;2022-09-01T02:52:41;18.50;99.90
1225;DHT22;602;48.000;7.840;2022-09-01T02:55:09;18.50;99.90
1225;DHT22;602;48.000;7.840;2022-09-01T02:57:37;18.50;99.90
1225;DHT22;602;48.000;7.840;2022-09-01T03:00:06;18.50;99.90
1225;DHT22;602;48.000;7.840;2022-09-01T03:02:47;18.50;99.90
1225;DHT22;602;48.000;7.840;2022-09-01T03:05:16;18.50;99.90
1225;DHT22;602;48.000;7.840;2022-09-01T03:07:43;18.50;99.90
1225;DHT22;602;48.000;7.840;2022-09-01T03:10:10;18.60;99.90
1225;DHT22;602;48.000;7.840;2022-09-01T03:12:37;18.60;99.90
1225;DHT22;602;48.000;7.840;2022-09-01T03:15:05;18.50;99.90
1225;DHT22;602;48.000;7.840;2022-09-01T03:17:32;18.50;99.90
1225;DHT22;602;48.000;7.840;2022-09-01T03:20:01;18.40;99.90
1225;DHT22;602;48.000;7.840;2022-09-01T03:22:28;18.40;99.90
1225;DHT22;602;48.000;7.840;2022-09-01T03:24:55;18.30;99.90
1225;DHT22;602;48.000;7.840;2022-09-01T03:27:22;18.30;99.90
1225;DHT22;602;48.000;7.840;2022-09-01T03:29:49;18.30;99.90
1225;DHT22;602;48.000;7.840;2022-09-01T03:32:16;18.20;99.90
1225;DHT22;602;48.000;7.840;2022-09-01T03:34:43;18.20;99.90
1225;DHT22;602;48.000;7.840;2022-09-01T03:37:12;18.10;99.90
1225;DHT22;602;48.000;7.840;2022-09-01T03:39:38;18.10;99.90
1225;DHT22;602;48.000;7.840;2022-09-01T03:42:06;18.10;99.90
1225;DHT22;602;48.000;7.840;2022-09-01T03:44:35;18.00;99.90
1225;DHT22;602;48.000;7.840;2022-09-01T03:47:05;18.00;99.90
1225;DHT22;602;48.000;7.840;2022-09-01T03:49:35;18.10;99.90
1225;DHT22;602;48.000;7.840;2022-09-01T03:52:04;18.00;99.90
1225;DHT22;602;48.000;7.840;2022-09-01T03:54:35;18.00;99.90
1225;DHT22;602;48.000;7.840;2022-09-01T03:57:02;18.00;99.90
1225;DHT22;602;48.000;7.840;2022-09-01T03:59:30;18.00;99.90
1225;DHT22;602;48.000;7.840;2022-09-01T04:01:58;18.00;99.90
1225;DHT22;602;48.000;7.840;2022-09-01T04:04:27;17.90;99.90
1225;DHT22;602;48.000;7.840;2022-09-01T04:06:57;17.90;99.90
1225;DHT22;602;48.000;7.840;2022-09-01T04:09:24;17.90;99.90
1225;DHT22;602;48.000;7.840;2022-09-01T04:11:53;17.80;99.90
1225;DHT22;602;48.000;7.840;2022-09-01T04:14:20;17.70;99.90
1225;DHT22;602;48.000;7.840;2022-09-01T04:16:47;17.80;99.90
1225;DHT22;602;48.000;7.840;2022-09-01T04:19:35;17.80;99.90
1225;DHT22;602;48.000;7.840;2022-09-01T04:22:04;17.80;99.90
1225;DHT22;602;48.000;7.840;2022-09-01T04:24:32;17.70;99.90
1225;DHT22;602;48.000;7.840;2022-09-01T04:27:02;17.80;99.90
1225;DHT22;602;48.000;7.840;2022-09-01T04:29:31;17.70;99.90
1225;DHT22;602;48.000;7.840;2022-09-01T04:32:01;17.70;99.90
1225;DHT22;602;48.000;7.840;2022-09-01T04:34:29;17.60;99.90
1225;DHT22;602;48.000;7.840;2022-09-01T04:37:01;17.50;99.90
1225;DHT22;602;48.000;7.840;2022-09-01T04:39:30;17.50;99.90
1225;DHT22;602;48.000;7.840;2022-09-01T04:41:57;17.50;99.90
1225;DHT22;602;48.000;7.840;2022-09-01T04:44:25;17.40;99.90
1225;DHT22;602;48.000;7.840;2022-09-01T04:46:53;17.40;99.90
1225;DHT22;602;48.000;7.840;2022-09-01T04:49:21;17.30;99.90
1225;DHT22;602;48.000;7.840;2022-09-01T04:51:52;17.40;99.90
1225;DHT22;602;48.000;7.840;2022-09-01T04:54:20;17.40;99.90
1225;DHT22;602;48.000;7.840;2022-09-01T04:56:50;17.30;99.90
1225;DHT22;602;48.000;7.840;2022-09-01T04:59:19;17.30;99.90
1225;DHT22;602;48.000;7.840;2022-09-01T05:01:48;17.20;99.90
1225;DHT22;602;48.000;7.840;2022-09-01T05:04:16;17.20;99.90
1225;DHT22;602;48.000;7.840;2022-09-01T05:06:44;17.10;99.90
1225;DHT22;602;48.000;7.840;2022-09-01T05:09:15;17.10;99.90
1225;DHT22;602;48.000;7.840;2022-09-01T05:11:42;17.10;99.90
1225;DHT22;602;48.000;7.840;2022-09-01T05:14:10;17.00;99.90
1225;DHT22;602;48.000;7.840;2022-09-01T05:16:38;17.10;99.90
1225;DHT22;602;48.000;7.840;2022-09-01T05:19:12;17.10;99.90
1225;DHT22;602;48.000;7.840;2022-09-01T05:21:41;17.10;99.90
1225;DHT22;602;48.000;7.840;2022-09-01T05:24:10;17.10;99.90
1225;DHT22;602;48.000;7.840;2022-09-01T05:26:39;17.20;99.90
1225;DHT22;602;48.000;7.840;2022-09-01T05:29:07;17.20;99.90
1225;DHT22;602;48.000;7.840;2022-09-01T05:31:38;17.10;99.90
1225;DHT22;602;48.000;7.840;2022-09-01T05:34:06;17.10;99.90
1225;DHT22;602;48.000;7.840;2022-09-01T05:36:37;17.10;99.90
1225;DHT22;602;48.000;7.840;2022-09-01T05:39:07;17.20;99.90
1225;DHT22;602;48.000;7.840;2022-09-01T05:41:37;17.10;99.90
1225;DHT22;602;48.000;7.840;2022-09-01T05:44:05;17.00;99.90
1225;DHT22;602;48.000;7.840;2022-09-01T05:46:35;16.80;99.90
1225;DHT22;602;48.000;7.840;2022-09-01T05:49:06;16.90;99.90
1225;DHT22;602;48.000;7.840;2022-09-01T05:51:49;16.90;99.90
1225;DHT22;602;48.000;7.840;2022-09-01T05:54:22;16.90;99.90
1225;DHT22;602;48.000;7.840;2022-09-01T05:56:51;17.00;99.90
1225;DHT22;602;48.000;7.840;2022-09-01T05:59:19;17.00;99.90
1225;DHT22;602;48.000;7.840;2022-09-01T06:01:48;17.00;99.90
1225;DHT22;602;48.000;7.840;2022-09-01T06:04:15;17.00;99.90
1225;DHT22;602;48.000;7.840;2022-09-01T06:06:43;17.10;99.90
1225;DHT22;602;48.000;7.840;2022-09-01T06:09:14;17.00;99.90
1225;DHT22;602;48.000;7.840;2022-09-01T06:11:42;17.00;99.90
1225;DHT22;602;48.000;7.840;2022-09-01T06:14:11;17.10;99.90
1225;DHT22;602;48.000;7.840;2022-09-01T06:16:38;17.20;99.90
1225;DHT22;602;48.000;7.840;2022-09-01T06:19:05;17.30;99.90
1225;DHT22;602;48.000;7.840;2022-09-01T06:21:32;17.30;99.90
1225;DHT22;602;48.000;7.840;2022-09-01T06:23:59;17.40;99.90
1225;DHT22;602;48.000;7.840;2022-09-01T06:26:29;17.40;99.90
1225;DHT22;602;48.000;7.840;2022-09-01T06:28:57;17.40;99.90
1225;DHT22;602;48.000;7.840;2022-09-01T06:31:27;17.50;99.90
1225;DHT22;602;48.000;7.840;2022-09-01T06:33:59;17.60;99.90
1225;DHT22;602;48.000;7.840;2022-09-01T06:36:28;17.60;99.90
1225;DHT22;602;48.000;7.840;2022-09-01T06:38:57;17.50;99.90
1225;DHT22;602;48.000;7.840;2022-09-01T06:41:27;17.60;99.90
1225;DHT22;602;48.000;7.840;2022-09-01T06:43:56;17.60;99.90
1225;DHT22;602;48.000;7.840;2022-09-01T06:46:26;17.70;99.90
1225;DHT22;602;48.000;7.840;2022-09-01T06:48:54;18.00;99.90
1225;DHT22;602;48.000;7.840;2022-09-01T06:51:25;18.30;99.90
1225;DHT22;602;48.000;7.840;2022-09-01T06:53:53;18.60;99.90
1225;DHT22;602;48.000;7.840;2022-09-01T06:56:24;18.80;99.90
1225;DHT22;602;48.000;7.840;2022-09-01T06:58:54;18.80;99.90
1225;DHT22;602;48.000;7.840;2022-09-01T07:01:21;18.80;99.90
1225;DHT22;602;48.000;7.840;2022-09-01T07:03:50;18.90;99.90
1225;DHT22;602;48.000;7.840;2022-09-01T07:06:20;19.10;99.90
1225;DHT22;602;48.000;7.840;2022-09-01T07:08:49;19.40;99.90
1225;DHT22;602;48.000;7.840;2022-09-01T07:11:21;19.50;99.90
1225;DHT22;602;48.000;7.840;2022-09-01T07:13:50;19.80;99.90
1225;DHT22;602;48.000;7.840;2022-09-01T07:16:21;20.10;99.90
1225;DHT22;602;48.000;7.840;2022-09-01T07:18:49;20.40;99.90
1225;DHT22;602;48.000;7.840;2022-09-01T07:21:16;20.60;99.90
1225;DHT22;602;48.000;7.840;2022-09-01T07:23:44;21.00;99.90
1225;DHT22;602;48.000;7.840;2022-09-01T07:26:11;21.10;99.90
1225;DHT22;602;48.000;7.840;2022-09-01T07:28:44;21.40;99.90
1225;DHT22;602;48.000;7.840;2022-09-01T07:31:17;21.80;99.90
1225;DHT22;602;48.000;7.840;2022-09-01T07:33:47;22.10;99.90
1225;DHT22;602;48.000;7.840;2022-09-01T07:36:16;22.40;99.90
1225;DHT22;602;48.000;7.840;2022-09-01T07:38:43;22.60;99.90
1225;DHT22;602;48.000;7.840;2022-09-01T07:41:11;22.80;99.90
1225;DHT22;602;48.000;7.840;2022-09-01T07:43:38;23.10;99.90
1225;DHT22;602;48.000;7.840;2022-09-01T07:46:07;23.30;99.90
1225;DHT22;602;48.000;7.840;2022-09-01T07:48:34;23.40;99.90
1225;DHT22;602;48.000;7.840;2022-09-01T07:51:03;23.60;99.90
1225;DHT22;602;48.000;7.840;2022-09-01T07:53:34;23.80;99.90
1225;DHT22;602;48.000;7.840;2022-09-01T07:56:05;24.00;99.90
1225;DHT22;602;48.000;7.840;2022-09-01T07:58:34;24.30;99.90
1225;DHT22;602;48.000;7.840;2022-09-01T08:01:05;24.70;99.90
1225;DHT22;602;48.000;7.840;2022-09-01T08:03:33;25.00;99.90
1225;DHT22;602;48.000;7.840;2022-09-01T08:06:04;25.30;99.90
1225;DHT22;602;48.000;7.840;2022-09-01T08:08:41;25.50;99.90
1225;DHT22;602;48.000;7.840;2022-09-01T08:11:19;25.60;99.90
1225;DHT22;602;48.000;7.840;2022-09-01T08:13:47;25.90;99.90
1225;DHT22;602;48.000;7.840;2022-09-01T08:16:22;25.90;99.90
1225;DHT22;602;48.000;7.840;2022-09-01T08:18:49;26.00;99.90
1225;DHT22;602;48.000;7.840;2022-09-01T08:21:22;26.20;99.90
1225;DHT22;602;48.000;7.840;2022-09-01T08:23:50;26.10;99.90
1225;DHT22;602;48.000;7.840;2022-09-01T08:26:19;26.10;99.90
1225;DHT22;602;48.000;7.840;2022-09-01T08:28:49;26.00;99.90
1225;DHT22;602;48.000;7.840;2022-09-01T08:31:21;26.00;99.90
1225;DHT22;602;48.000;7.840;2022-09-01T08:33:49;26.10;99.90
1225;DHT22;602;48.000;7.840;2022-09-01T08:36:18;26.10;99.90
1225;DHT22;602;48.000;7.840;2022-09-01T08:38:48;26.10;99.90
1225;DHT22;602;48.000;7.840;2022-09-01T08:41:23;26.20;99.90
1225;DHT22;602;48.000;7.840;2022-09-01T08:44:01;26.30;99.90
1225;DHT22;602;48.000;7.840;2022-09-01T08:46:36;26.60;99.90
1225;DHT22;602;48.000;7.840;2022-09-01T08:49:13;26.60;99.90
1225;DHT22;602;48.000;7.840;2022-09-01T08:51:48;26.50;99.90
1225;DHT22;602;48.000;7.840;2022-09-01T08:54:25;26.20;99.90
1225;DHT22;602;48.000;7.840;2022-09-01T08:56:57;26.30;99.90
1225;DHT22;602;48.000;7.840;2022-09-01T08:59:29;26.30;99.90
1225;DHT22;602;48.000;7.840;2022-09-01T09:02:02;26.30;99.90
1225;DHT22;602;48.000;7.840;2022-09-01T09:04:46;26.50;99.90
1225;DHT22;602;48.000;7.840;2022-09-01T09:07:26;26.60;99.90
1225;DHT22;602;48.000;7.840;2022-09-01T09:10:04;26.60;99.90
1225;DHT22;602;48.000;7.840;2022-09-01T09:12:45;26.90;99.90
1225;DHT22;602;48.000;7.840;2022-09-01T09:15:21;27.10;99.90
1225;DHT22;602;48.000;7.840;2022-09-01T09:17:52;27.40;99.90
1225;DHT22;602;48.000;7.840;2022-09-01T09:20:24;27.50;99.90
1225;DHT22;602;48.000;7.840;2022-09-01T09:22:51;27.60;99.90
1225;DHT22;602;48.000;7.840;2022-09-01T09:25:20;27.80;99.90
1225;DHT22;602;48.000;7.840;2022-09-01T09:27:50;27.90;99.90
1225;DHT22;602;48.000;7.840;2022-09-01T09:30:20;28.10;99.90
1225;DHT22;602;48.000;7.840;2022-09-01T09:32:50;28.30;99.90
1225;DHT22;602;48.000;7.840;2022-09-01T09:35:23;28.30;99.90
1225;DHT22;602;48.000;7.840;2022-09-01T09:37:51;28.50;99.90
1225;DHT22;602;48.000;7.840;2022-09-01T09:40:21;28.60;99.90
1225;DHT22;602;48.000;7.840;2022-09-01T09:43:02;28.60;99.90
1225;DHT22;602;48.000;7.840;2022-09-01T09:45:30;28.90;99.90
1225;DHT22;602;48.000;7.840;2022-09-01T09:48:00;28.60;99.90
1225;DHT22;602;48.000;7.840;2022-09-01T09:50:31;28.90;99.90
1225;DHT22;602;48.000;7.840;2022-09-01T09:53:17;29.10;99.90
1225;DHT22;602;48.000;7.840;2022-09-01T09:56:15;29.00;99.90
1225;DHT22;602;48.000;7.840;2022-09-01T09:58:44;29.00;99.90
1225;DHT22;602;48.000;7.840;2022-09-01T10:01:14;29.20;99.90
1225;DHT22;602;48.000;7.840;2022-09-01T10:03:55;29.30;99.90
1225;DHT22;602;48.000;7.840;2022-09-01T10:06:31;29.70;99.90
1225;DHT22;602;48.000;7.840;2022-09-01T10:09:00;29.70;99.90
1225;DHT22;602;48.000;7.840;2022-09-01T10:11:35;29.80;99.90
1225;DHT22;602;48.000;7.840;2022-09-01T10:14:05;30.10;99.90
1225;DHT22;602;48.000;7.840;2022-09-01T10:16:36;30.20;99.90
1225;DHT22;602;48.000;7.840;2022-09-01T10:19:05;30.40;99.90
1225;DHT22;602;48.000;7.840;2022-09-01T10:21:36;30.30;99.90
1225;DHT22;602;48.000;7.840;2022-09-01T10:24:09;30.50;99.90
1225;DHT22;602;48.000;7.840;2022-09-01T10:26:40;30.30;99.90
1225;DHT22;602;48.000;7.840;2022-09-01T10:29:12;30.20;99.90
1225;DHT22;602;48.000;7.840;2022-09-01T10:31:40;30.50;99.90
1225;DHT22;602;48.000;7.840;2022-09-01T10:34:11;30.40;99.90
1225;DHT22;602;48.000;7.840;2022-09-01T10:36:42;30.60;99.90
1225;DHT22;602;48.000;7.840;2022-09-01T10:39:11;30.80;99.90
1225;DHT22;602;48.000;7.840;2022-09-01T10:41:49;31.10;99.90
1225;DHT22;602;48.000;7.840;2022-09-01T10:44:22;31.10;99.90
1225;DHT22;602;48.000;7.840;2022-09-01T10:46:51;30.90;99.90
1225;DHT22;602;48.000;7.840;2022-09-01T10:52:06;31.20;99.90
1225;DHT22;602;48.000;7.840;2022-09-01T10:54:56;31.60;99.90
1225;DHT22;602;48.000;7.840;2022-09-01T10:57:56;31.80;99.90
1225;DHT22;602;48.000;7.840;2022-09-01T11:00:47;31.90;99.90
1225;DHT22;602;48.000;7.840;2022-09-01T11:09:33;32.40;99.90
1225;DHT22;602;48.000;7.840;2022-09-01T11:12:27;32.40;99.90
1225;DHT22;602;48.000;7.840;2022-09-01T11:15:05;32.40;99.90
1225;DHT22;602;48.000;7.840;2022-09-01T11:17:34;32.50;99.90
1225;DHT22;602;48.000;7.840;2022-09-01T11:20:07;32.70;99.90
1225;DHT22;602;48.000;7.840;2022-09-01T11:22:38;33.20;99.90
1225;DHT22;602;48.000;7.840;2022-09-01T11:28:09;33.10;99.90
1225;DHT22;602;48.000;7.840;2022-09-01T11:30:43;33.20;99.90
1225;DHT22;602;48.000;7.840;2022-09-01T11:33:37;33.10;99.90
1225;DHT22;602;48.000;7.840;2022-09-01T11:36:11;32.90;99.90
1225;DHT22;602;48.000;7.840;2022-09-01T11:38:46;33.10;99.90
1225;DHT22;602;48.000;7.840;2022-09-01T11:41:20;33.30;99.90
1225;DHT22;602;48.000;7.840;2022-09-01T11:43:50;33.60;99.90
1225;DHT22;602;48.000;7.840;2022-09-01T11:46:21;33.80;99.90
1225;DHT22;602;48.000;7.840;2022-09-01T11:48:50;34.00;99.90
1225;DHT22;602;48.000;7.840;2022-09-01T11:51:18;34.20;99.90
1225;DHT22;602;48.000;7.840;2022-09-01T11:53:46;34.40;99.90
1225;DHT22;602;48.000;7.840;2022-09-01T11:56:15;34.50;99.90
1225;DHT22;602;48.000;7.840;2022-09-01T11:58:43;34.20;99.90
1225;DHT22;602;48.000;7.840;2022-09-01T12:01:14;34.20;99.90
1225;DHT22;602;48.000;7.840;2022-09-01T12:03:43;34.20;99.90
1225;DHT22;602;48.000;7.840;2022-09-01T12:06:17;34.10;99.90
1225;DHT22;602;48.000;7.840;2022-09-01T12:08:53;33.90;99.90
1225;DHT22;602;48.000;7.840;2022-09-01T12:11:22;34.10;99.90
1225;DHT22;602;48.000;7.840;2022-09-01T12:13:57;34.10;99.90
1225;DHT22;602;48.000;7.840;2022-09-01T12:16:25;33.90;99.90
1225;DHT22;602;48.000;7.840;2022-09-01T12:18:55;34.10;99.90
1225;DHT22;602;48.000;7.840;2022-09-01T12:21:25;33.70;99.90
1225;DHT22;602;48.000;7.840;2022-09-01T12:23:54;33.70;99.60
1225;DHT22;602;48.000;7.840;2022-09-01T12:26:35;33.60;99.60
1225;DHT22;602;48.000;7.840;2022-09-01T12:29:04;33.40;99.90
1225;DHT22;602;48.000;7.840;2022-09-01T12:31:31;33.50;99.90
1225;DHT22;602;48.000;7.840;2022-09-01T12:34:00;33.60;99.90
1225;DHT22;602;48.000;7.840;2022-09-01T12:36:30;33.40;99.90
1225;DHT22;602;48.000;7.840;2022-09-01T12:39:19;33.30;99.90
1225;DHT22;602;48.000;7.840;2022-09-01T12:42:01;33.30;99.90
1225;DHT22;602;48.000;7.840;2022-09-01T12:44:31;33.10;99.90
1225;DHT22;602;48.000;7.840;2022-09-01T12:47:00;33.10;99.90
1225;DHT22;602;48.000;7.840;2022-09-01T12:49:37;33.00;99.90
1225;DHT22;602;48.000;7.840;2022-09-01T12:52:16;32.90;99.90
1225;DHT22;602;48.000;7.840;2022-09-01T12:54:47;32.80;99.90
1225;DHT22;602;48.000;7.840;2022-09-01T12:57:24;32.90;99.90
1225;DHT22;602;48.000;7.840;2022-09-01T13:00:06;33.00;99.70
1225;DHT22;602;48.000;7.840;2022-09-01T13:02:35;33.10;99.90
1225;DHT22;602;48.000;7.840;2022-09-01T13:05:20;33.10;99.70
1225;DHT22;602;48.000;7.840;2022-09-01T13:07:48;32.60;98.30
1225;DHT22;602;48.000;7.840;2022-09-01T13:10:15;32.40;98.30
1225;DHT22;602;48.000;7.840;2022-09-01T13:12:42;32.60;97.90
1225;DHT22;602;48.000;7.840;2022-09-01T13:15:10;32.80;97.70
1225;DHT22;602;48.000;7.840;2022-09-01T13:17:38;33.00;97.90
1225;DHT22;602;48.000;7.840;2022-09-01T13:20:06;32.90;97.20
1225;DHT22;602;48.000;7.840;2022-09-01T13:22:34;33.10;97.80
1225;DHT22;602;48.000;7.840;2022-09-01T13:25:03;32.70;97.30
1225;DHT22;602;48.000;7.840;2022-09-01T13:27:30;32.50;98.00
1225;DHT22;602;48.000;7.840;2022-09-01T13:29:57;32.40;97.70
1225;DHT22;602;48.000;7.840;2022-09-01T13:32:24;32.30;98.80
1225;DHT22;602;48.000;7.840;2022-09-01T13:34:52;32.20;98.20
1225;DHT22;602;48.000;7.840;2022-09-01T13:37:20;32.30;98.10
1225;DHT22;602;48.000;7.840;2022-09-01T13:39:48;32.40;98.20
1225;DHT22;602;48.000;7.840;2022-09-01T13:42:16;32.40;97.60
1225;DHT22;602;48.000;7.840;2022-09-01T13:44:44;32.20;96.90
1225;DHT22;602;48.000;7.840;2022-09-01T13:47:11;32.10;97.50
1225;DHT22;602;48.000;7.840;2022-09-01T13:49:38;32.10;97.30
1225;DHT22;602;48.000;7.840;2022-09-01T13:52:05;32.10;97.20
1225;DHT22;602;48.000;7.840;2022-09-01T13:54:32;32.30;97.50
1225;DHT22;602;48.000;7.840;2022-09-01T13:57:01;32.40;97.00
1225;DHT22;602;48.000;7.840;2022-09-01T13:59:27;32.20;96.70
1225;DHT22;602;48.000;7.840;2022-09-01T14:01:55;32.30;97.10
1225;DHT22;602;48.000;7.840;2022-09-01T14:04:24;32.40;96.70
1225;DHT22;602;48.000;7.840;2022-09-01T14:06:51;32.30;95.90
1225;DHT22;602;48.000;7.840;2022-09-01T14:09:21;31.90;95.50
1225;DHT22;602;48.000;7.840;2022-09-01T14:11:50;31.90;96.50
1225;DHT22;602;48.000;7.840;2022-09-01T14:14:19;31.80;96.70
1225;DHT22;602;48.000;7.840;2022-09-01T14:16:46;31.70;96.10
1225;DHT22;602;48.000;7.840;2022-09-01T14:19:14;31.30;95.60
1225;DHT22;602;48.000;7.840;2022-09-01T14:21:43;30.90;94.40
1225;DHT22;602;48.000;7.840;2022-09-01T14:24:11;30.70;94.40
1225;DHT22;602;48.000;7.840;2022-09-01T14:26:39;30.60;94.20
1225;DHT22;602;48.000;7.840;2022-09-01T14:29:06;30.50;94.20
1225;DHT22;602;48.000;7.840;2022-09-01T14:31:35;30.40;94.10
1225;DHT22;602;48.000;7.840;2022-09-01T14:34:02;30.40;94.60
1225;DHT22;602;48.000;7.840;2022-09-01T14:36:29;30.40;94.50
1225;DHT22;602;48.000;7.840;2022-09-01T14:38:56;30.20;94.20
1225;DHT22;602;48.000;7.840;2022-09-01T14:41:24;30.00;94.30
1225;DHT22;602;48.000;7.840;2022-09-01T14:43:51;29.90;94.60
1225;DHT22;602;48.000;7.840;2022-09-01T14:46:19;29.70;94.80
1225;DHT22;602;48.000;7.840;2022-09-01T14:48:50;29.80;95.60
1225;DHT22;602;48.000;7.840;2022-09-01T14:51:20;29.80;95.60
1225;DHT22;602;48.000;7.840;2022-09-01T14:53:48;29.70;95.30
1225;DHT22;602;48.000;7.840;2022-09-01T14:56:15;29.70;95.70
1225;DHT22;602;48.000;7.840;2022-09-01T14:58:44;29.40;94.70
1225;DHT22;602;48.000;7.840;2022-09-01T15:01:16;29.30;95.20
1225;DHT22;602;48.000;7.840;2022-09-01T15:03:43;29.20;95.40
1225;DHT22;602;48.000;7.840;2022-09-01T15:06:12;29.20;95.90
1225;DHT22;602;48.000;7.840;2022-09-01T15:08:41;29.20;96.00
1225;DHT22;602;48.000;7.840;2022-09-01T15:11:08;29.20;96.30
1225;DHT22;602;48.000;7.840;2022-09-01T15:13:36;29.00;96.10
1225;DHT22;602;48.000;7.840;2022-09-01T15:16:04;29.00;95.90
1225;DHT22;602;48.000;7.840;2022-09-01T15:18:31;29.00;96.40
1225;DHT22;602;48.000;7.840;2022-09-01T15:20:58;29.00;96.30
1225;DHT22;602;48.000;7.840;2022-09-01T15:23:26;28.80;96.60
1225;DHT22;602;48.000;7.840;2022-09-01T15:25:54;28.80;97.10
1225;DHT22;602;48.000;7.840;2022-09-01T15:28:23;28.40;97.10
1225;DHT22;602;48.000;7.840;2022-09-01T15:30:50;28.50;97.10
1225;DHT22;602;48.000;7.840;2022-09-01T15:33:18;28.40;97.80
1225;DHT22;602;48.000;7.840;2022-09-01T15:35:45;28.30;98.30
1225;DHT22;602;48.000;7.840;2022-09-01T15:38:13;28.30;98.20
1225;DHT22;602;48.000;7.840;2022-09-01T15:40:42;27.80;97.90
1225;DHT22;602;48.000;7.840;2022-09-01T15:43:09;27.70;98.00
1225;DHT22;602;48.000;7.840;2022-09-01T15:45:37;27.70;98.90
1225;DHT22;602;48.000;7.840;2022-09-01T15:48:05;27.50;98.40
1225;DHT22;602;48.000;7.840;2022-09-01T15:50:32;27.50;98.90
1225;DHT22;602;48.000;7.840;2022-09-01T15:53:01;27.40;99.10
1225;DHT22;602;48.000;7.840;2022-09-01T15:55:37;27.20;99.20
1225;DHT22;602;48.000;7.840;2022-09-01T15:58:08;27.00;99.60
1225;DHT22;602;48.000;7.840;2022-09-01T16:00:36;26.80;99.90
1225;DHT22;602;48.000;7.840;2022-09-01T16:03:03;26.70;99.90
1225;DHT22;602;48.000;7.840;2022-09-01T16:05:32;26.50;99.90
1225;DHT22;602;48.000;7.840;2022-09-01T16:08:03;26.50;99.90
1225;DHT22;602;48.000;7.840;2022-09-01T16:10:34;26.50;99.90
1225;DHT22;602;48.000;7.840;2022-09-01T16:13:03;26.40;99.90
1225;DHT22;602;48.000;7.840;2022-09-01T16:15:31;26.30;99.90
1225;DHT22;602;48.000;7.840;2022-09-01T16:18:08;26.10;99.90
1225;DHT22;602;48.000;7.840;2022-09-01T16:20:47;26.10;99.90
1225;DHT22;602;48.000;7.840;2022-09-01T16:23:17;26.10;99.90
1225;DHT22;602;48.000;7.840;2022-09-01T16:25:45;26.10;99.60
1225;DHT22;602;48.000;7.840;2022-09-01T16:28:23;26.00;99.80
1225;DHT22;602;48.000;7.840;2022-09-01T16:30:54;26.00;99.90
1225;DHT22;602;48.000;7.840;2022-09-01T16:33:23;25.90;99.90
1225;DHT22;602;48.000;7.840;2022-09-01T16:36:02;25.90;99.90
1225;DHT22;602;48.000;7.840;2022-09-01T16:38:40;25.80;99.90
1225;DHT22;602;48.000;7.840;2022-09-01T16:41:12;25.90;99.90
1225;DHT22;602;48.000;7.840;2022-09-01T16:43:47;25.90;99.90
1225;DHT22;602;48.000;7.840;2022-09-01T16:46:22;25.90;99.90
1225;DHT22;602;48.000;7.840;2022-09-01T16:48:55;25.80;99.90